Time;durP1;ratioP1;P1;durP2;ratioP2;P2;SDS_P1;SDS_P2;PMS_P1;PMS_P2;Temp;Humidity;BMP_temperature;BMP_pressure;BME280_temperature;BME280_humidity;BME280_pressure;Samples;Min_cycle;Max_cycle;Signal;HPM_P1;HPM_P2
2022/06/20 00:00:16;;;;;;;16.48;5.10;;;14.30;99.90;;;;;;5042869;28;20324;-67
2022/06/20 00:02:44;;;;;;;23.60;5.22;;;14.30;99.90;;;;;;5044112;28;20051;-67
2022/06/20 00:05:15;;;;;;;16.77;4.78;;;14.30;99.90;;;;;;5026785;28;20033;-67
2022/06/20 00:07:41;;;;;;;17.35;5.60;;;14.20;99.90;;;;;;5043159;28;20063;-66
2022/06/20 00:10:09;;;;;;;17.42;4.78;;;14.20;99.90;;;;;;5026790;28;20021;-66
2022/06/20 00:12:35;;;;;;;14.13;3.85;;;14.20;99.90;;;;;;5042948;28;20033;-66
2022/06/20 00:15:02;;;;;;;16.92;4.03;;;14.20;99.90;;;;;;5044002;28;20018;-66
2022/06/20 00:17:28;;;;;;;16.20;4.30;;;14.20;99.90;;;;;;5043722;28;20032;-66
2022/06/20 00:19:53;;;;;;;18.23;4.28;;;14.10;99.90;;;;;;5044191;28;20033;-68
2022/06/20 00:22:19;;;;;;;21.15;4.97;;;14.10;99.90;;;;;;5042978;28;20297;-66
2022/06/20 00:24:45;;;;;;;12.70;3.55;;;14.10;99.90;;;;;;5043585;28;20069;-68
2022/06/20 00:27:11;;;;;;;12.25;3.40;;;14.00;99.90;;;;;;5043937;28;20021;-67
2022/06/20 00:29:39;;;;;;;10.32;3.50;;;14.00;99.90;;;;;;5043738;28;20025;-66
2022/06/20 00:32:06;;;;;;;13.48;3.25;;;13.90;99.90;;;;;;5042663;28;20033;-66
2022/06/20 00:34:33;;;;;;;12.80;3.30;;;13.90;99.90;;;;;;5042602;28;20021;-67
2022/06/20 00:36:59;;;;;;;12.27;2.90;;;13.80;99.90;;;;;;5043745;28;20094;-66
2022/06/20 00:39:25;;;;;;;11.00;2.80;;;13.80;99.90;;;;;;5042514;28;20025;-66
2022/06/20 00:41:51;;;;;;;9.30;2.88;;;13.70;99.90;;;;;;5043952;28;20228;-65
2022/06/20 00:44:25;;;;;;;8.68;2.85;;;13.70;99.90;;;;;;5043513;28;21964;-69
2022/06/20 00:46:56;;;;;;;10.98;3.03;;;13.60;99.90;;;;;;5042305;28;20014;-68
2022/06/20 00:49:44;;;;;;;10.98;2.47;;;13.60;99.90;;;;;;5042515;28;20271;-69
2022/06/20 00:52:41;;;;;;;10.43;2.95;;;13.60;99.90;;;;;;5042937;28;20017;-69
2022/06/20 00:55:33;;;;;;;11.63;2.50;;;13.50;99.90;;;;;;5028754;28;20124;-66
2022/06/20 00:58:09;;;;;;;10.55;2.75;;;13.50;99.90;;;;;;5042797;28;20032;-66
2022/06/20 01:00:38;;;;;;;11.68;2.50;;;13.40;99.90;;;;;;5043313;28;20057;-66
2022/06/20 01:03:13;;;;;;;10.52;2.58;;;13.40;99.90;;;;;;5026260;28;20273;-66
2022/06/20 01:05:52;;;;;;;11.07;2.35;;;13.40;99.90;;;;;;5042279;28;20129;-66
2022/06/20 01:08:23;;;;;;;7.63;2.50;;;13.40;99.90;;;;;;5042587;28;20063;-67
2022/06/20 01:11:03;;;;;;;11.02;3.30;;;13.30;99.90;;;;;;5026189;28;20021;-66
2022/06/20 01:13:29;;;;;;;10.00;3.15;;;13.30;99.90;;;;;;5010667;28;20312;-66
2022/06/20 01:16:00;;;;;;;11.55;2.80;;;13.20;99.90;;;;;;5043682;28;20033;-67
2022/06/20 01:18:31;;;;;;;10.88;3.15;;;13.20;99.90;;;;;;5042239;28;20045;-66
2022/06/20 01:20:59;;;;;;;10.90;2.60;;;13.10;99.90;;;;;;5042505;28;20034;-67
2022/06/20 01:23:48;;;;;;;11.02;2.67;;;13.10;99.90;;;;;;5043424;28;20092;-67
2022/06/20 01:26:53;;;;;;;8.27;2.42;;;13.00;99.90;;;;;;5042455;28;20331;-66
2022/06/20 01:29:19;;;;;;;11.82;2.95;;;12.90;99.90;;;;;;5025484;28;20026;-67
2022/06/20 01:31:50;;;;;;;11.82;2.35;;;12.90;99.90;;;;;;5023532;28;20080;-67
2022/06/20 01:34:17;;;;;;;9.83;2.33;;;12.80;99.90;;;;;;5020307;28;20085;-67
2022/06/20 01:39:37;;;;;;;7.78;2.20;;;12.80;99.90;;;;;;5026041;28;20022;-66
2022/06/20 01:42:19;;;;;;;7.30;2.20;;;12.70;99.90;;;;;;5025741;28;20017;-67
2022/06/20 01:44:58;;;;;;;8.07;2.15;;;12.70;99.90;;;;;;5026849;28;20022;-66
2022/06/20 01:47:24;;;;;;;9.18;2.13;;;12.60;99.90;;;;;;5034342;28;20049;-66
2022/06/20 01:49:54;;;;;;;9.18;2.30;;;12.60;99.90;;;;;;5026941;28;20025;-66
2022/06/20 01:52:28;;;;;;;8.85;2.33;;;12.50;99.90;;;;;;5026924;28;20249;-67
2022/06/20 01:55:00;;;;;;;8.85;2.63;;;12.50;99.90;;;;;;5026363;28;20021;-67
2022/06/20 01:57:29;;;;;;;8.85;2.47;;;12.40;99.90;;;;;;5026813;28;20072;-67
2022/06/20 02:00:07;;;;;;;11.13;2.33;;;12.30;99.90;;;;;;5026876;28;20108;-67
2022/06/20 02:02:38;;;;;;;9.68;2.67;;;12.30;99.90;;;;;;5025763;28;20097;-66
2022/06/20 02:05:07;;;;;;;9.55;2.50;;;12.30;99.90;;;;;;5026423;28;20089;-67
2022/06/20 02:07:33;;;;;;;11.32;2.45;;;12.30;99.90;;;;;;5009170;28;20026;-67
2022/06/20 02:10:01;;;;;;;9.90;2.40;;;12.30;99.90;;;;;;5026534;28;20025;-67
2022/06/20 02:12:31;;;;;;;5.93;1.83;;;12.30;99.90;;;;;;5025344;28;20080;-65
2022/06/20 02:14:58;;;;;;;9.77;2.20;;;12.20;99.90;;;;;;5025260;28;20026;-67
2022/06/20 02:17:35;;;;;;;9.63;1.90;;;12.20;99.90;;;;;;5024924;28;20092;-67
2022/06/20 02:20:06;;;;;;;7.07;1.95;;;12.10;99.90;;;;;;5025497;28;20021;-66
2022/06/20 02:22:35;;;;;;;5.38;1.80;;;12.10;99.90;;;;;;5026529;28;20025;-67
2022/06/20 02:25:06;;;;;;;5.15;2.10;;;12.00;99.90;;;;;;5025825;28;20026;-67
2022/06/20 02:27:37;;;;;;;7.65;2.03;;;12.00;99.90;;;;;;5026266;28;20049;-67
2022/06/20 02:30:05;;;;;;;8.00;2.58;;;11.90;99.90;;;;;;5026157;28;20028;-66
2022/06/20 02:32:35;;;;;;;7.32;2.38;;;11.80;99.90;;;;;;5026272;28;20245;-66
2022/06/20 02:35:04;;;;;;;7.13;1.73;;;11.80;99.90;;;;;;5023075;28;20038;-67
2022/06/20 02:37:30;;;;;;;7.55;1.67;;;11.80;99.90;;;;;;5024888;28;20204;-67
2022/06/20 02:40:03;;;;;;;7.50;1.83;;;11.70;99.90;;;;;;5025852;28;20021;-67
2022/06/20 02:42:37;;;;;;;10.38;2.28;;;11.70;99.90;;;;;;5024990;28;20025;-66
2022/06/20 02:45:07;;;;;;;6.97;1.63;;;11.60;99.90;;;;;;5024614;28;20038;-67
2022/06/20 02:47:34;;;;;;;5.63;1.40;;;11.60;99.90;;;;;;5021313;28;20332;-66
2022/06/20 02:50:02;;;;;;;7.35;2.05;;;11.60;99.90;;;;;;5043599;28;20018;-67
2022/06/20 02:52:35;;;;;;;5.82;1.85;;;11.60;99.90;;;;;;5044568;28;20305;-67
2022/06/20 02:55:01;;;;;;;6.95;1.27;;;11.50;99.90;;;;;;5044165;28;20021;-66
2022/06/20 02:57:34;;;;;;;7.38;1.45;;;11.50;99.90;;;;;;5045519;28;20033;-67
2022/06/20 03:00:00;;;;;;;4.82;1.65;;;11.40;99.90;;;;;;5045173;28;20107;-66
2022/06/20 03:02:30;;;;;;;5.57;1.67;;;11.40;99.90;;;;;;5045517;28;20029;-66
2022/06/20 03:04:57;;;;;;;6.88;2.00;;;11.40;99.90;;;;;;5045284;28;20029;-66
2022/06/20 03:07:27;;;;;;;9.40;1.70;;;11.40;99.90;;;;;;5045112;28;20147;-66
2022/06/20 03:09:58;;;;;;;8.07;1.77;;;11.40;99.90;;;;;;5044190;28;20055;-67
2022/06/20 03:12:24;;;;;;;6.23;1.63;;;11.30;99.90;;;;;;5045325;28;20079;-66
2022/06/20 03:14:53;;;;;;;5.22;1.35;;;11.30;99.90;;;;;;5044819;28;20446;-67
2022/06/20 03:17:22;;;;;;;4.05;1.58;;;11.20;99.90;;;;;;5044666;28;20056;-66
2022/06/20 03:19:52;;;;;;;8.20;2.30;;;11.20;99.90;;;;;;5044071;28;20060;-66
2022/06/20 03:22:22;;;;;;;9.55;2.65;;;11.20;99.90;;;;;;5045117;28;20048;-67
2022/06/20 03:24:51;;;;;;;5.47;2.15;;;11.20;99.90;;;;;;5044819;28;20025;-66
2022/06/20 03:27:23;;;;;;;11.98;2.70;;;11.20;99.90;;;;;;5044626;28;20032;-66
2022/06/20 03:29:54;;;;;;;10.13;2.55;;;11.10;99.90;;;;;;5024076;28;20022;-67
2022/06/20 03:32:23;;;;;;;12.10;2.40;;;11.10;99.90;;;;;;5025180;28;20021;-66
2022/06/20 03:34:49;;;;;;;8.45;2.45;;;11.10;99.90;;;;;;5023716;28;20036;-67
2022/06/20 03:37:15;;;;;;;8.30;2.30;;;11.00;99.90;;;;;;5024885;28;20096;-66
2022/06/20 03:39:41;;;;;;;10.10;2.42;;;11.00;99.90;;;;;;5023657;28;20024;-66
2022/06/20 03:42:06;;;;;;;8.98;2.67;;;10.90;99.90;;;;;;5024866;28;20217;-67
2022/06/20 03:44:38;;;;;;;6.90;2.13;;;10.90;99.90;;;;;;5024732;28;20026;-67
2022/06/20 03:47:13;;;;;;;6.53;2.25;;;10.90;99.90;;;;;;5033714;28;20092;-67
2022/06/20 03:49:55;;;;;;;6.82;2.22;;;10.90;99.90;;;;;;5043508;28;20048;-66
2022/06/20 03:52:23;;;;;;;;;;;10.80;99.90;;;;;;5045048;28;20063;-66
2022/06/20 03:54:56;;;;;;;7.90;1.83;;;10.80;99.90;;;;;;5043226;28;19964;-67
2022/06/20 03:57:33;;;;;;;8.32;2.03;;;10.80;99.90;;;;;;5044185;28;20017;-66
2022/06/20 04:00:08;;;;;;;8.68;1.85;;;10.70;99.90;;;;;;5044275;28;20049;-67
2022/06/20 04:02:55;;;;;;;8.68;1.95;;;10.70;99.90;;;;;;5043338;28;20056;-66
2022/06/20 04:05:29;;;;;;;5.60;1.70;;;10.70;99.90;;;;;;5043120;28;20067;-66
2022/06/20 04:08:09;;;;;;;8.73;2.70;;;10.70;99.90;;;;;;5044082;28;20485;-66
2022/06/20 04:10:59;;;;;;;6.57;1.95;;;10.70;99.90;;;;;;5044312;28;20024;-67
2022/06/20 04:14:04;;;;;;;10.80;1.77;;;10.70;99.90;;;;;;5043379;28;20292;-67
2022/06/20 04:16:54;;;;;;;7.75;2.28;;;10.80;99.90;;;;;;5042918;28;20022;-67
2022/06/20 04:19:27;;;;;;;7.85;2.03;;;10.80;99.90;;;;;;5045809;28;20067;-67
2022/06/20 04:21:58;;;;;;;10.55;2.70;;;10.90;99.90;;;;;;5044148;28;20028;-66
2022/06/20 04:24:40;;;;;;;7.45;1.80;;;10.80;99.90;;;;;;5043829;28;20057;-66
2022/06/20 04:27:26;;;;;;;9.55;2.05;;;10.80;99.90;;;;;;5042847;28;20030;-67
2022/06/20 04:30:00;;;;;;;8.15;2.30;;;10.90;99.90;;;;;;5024491;28;20022;-67
2022/06/20 04:32:50;;;;;;;12.45;2.20;;;10.90;99.90;;;;;;5023145;28;20013;-67
2022/06/20 04:35:29;;;;;;;8.60;2.40;;;11.00;99.90;;;;;;5008448;28;20313;-67
2022/06/20 04:38:13;;;;;;;7.55;2.08;;;11.10;99.90;;;;;;5023809;28;20089;-67
2022/06/20 04:41:03;;;;;;;10.63;2.17;;;11.50;99.90;;;;;;5022850;28;20372;-66
2022/06/20 04:43:36;;;;;;;6.95;1.80;;;11.90;99.90;;;;;;5023697;28;20022;-66
2022/06/20 04:46:13;;;;;;;6.60;2.10;;;12.20;99.90;;;;;;5022114;28;20317;-67
2022/06/20 04:48:39;;;;;;;9.05;2.00;;;12.50;99.90;;;;;;5005937;28;20056;-66
2022/06/20 04:51:08;;;;;;;5.90;1.83;;;12.70;99.40;;;;;;5023545;28;20085;-67
2022/06/20 04:53:42;;;;;;;5.38;1.80;;;12.80;98.90;;;;;;5021303;28;20026;-66
2022/06/20 04:56:12;;;;;;;9.77;1.92;;;12.90;98.80;;;;;;5023497;28;20030;-66
2022/06/20 04:59:00;;;;;;;8.80;2.15;;;13.10;98.60;;;;;;5021861;28;20089;-66
2022/06/20 05:01:30;;;;;;;4.75;1.63;;;13.20;98.10;;;;;;5022451;28;20041;-66
2022/06/20 05:04:05;;;;;;;6.25;1.80;;;13.30;97.70;;;;;;5021989;28;20313;-66
2022/06/20 05:06:32;;;;;;;5.47;2.03;;;13.40;97.60;;;;;;5022081;28;20137;-66
2022/06/20 05:09:06;;;;;;;10.25;1.85;;;13.70;97.40;;;;;;5023098;28;20089;-66
2022/06/20 05:11:37;;;;;;;6.50;1.52;;;13.80;96.80;;;;;;5022417;28;20041;-66
2022/06/20 05:14:09;;;;;;;8.70;1.95;;;13.80;96.70;;;;;;5024831;28;20037;-67
2022/06/20 05:16:48;;;;;;;5.60;1.67;;;13.80;96.40;;;;;;5025542;28;20076;-67
2022/06/20 05:19:36;;;;;;;5.95;1.92;;;13.90;96.50;;;;;;5027080;28;20022;-66
2022/06/20 05:22:11;;;;;;;7.57;2.17;;;13.80;96.50;;;;;;5025828;28;20304;-67
2022/06/20 05:24:39;;;;;;;6.93;1.63;;;13.60;96.80;;;;;;5026146;28;20037;-66
2022/06/20 05:27:15;;;;;;;7.28;2.05;;;13.30;97.20;;;;;;5025424;28;20075;-66
2022/06/20 05:29:43;;;;;;;4.70;1.80;;;13.10;97.60;;;;;;5024850;28;20018;-67
2022/06/20 05:32:14;;;;;;;5.65;1.75;;;12.90;98.10;;;;;;5025853;28;20212;-66
2022/06/20 05:34:55;;;;;;;6.32;1.92;;;12.80;98.50;;;;;;5025134;28;20309;-66
2022/06/20 05:37:48;;;;;;;8.93;2.30;;;12.60;98.90;;;;;;5025263;28;20042;-67
2022/06/20 05:40:22;;;;;;;6.75;1.77;;;12.40;99.20;;;;;;5025793;28;20330;-67
2022/06/20 05:42:47;;;;;;;6.18;1.80;;;12.40;99.40;;;;;;5025320;28;20216;-66
2022/06/20 05:45:16;;;;;;;9.02;2.15;;;12.50;99.50;;;;;;5025233;28;20034;-66
2022/06/20 05:47:47;;;;;;;7.70;2.10;;;12.50;99.40;;;;;;5036493;28;20022;-67
2022/06/20 05:50:52;;;;;;;6.85;1.90;;;12.50;99.60;;;;;;5025675;28;20025;-66
2022/06/20 05:53:24;;;;;;;7.00;2.15;;;12.50;99.70;;;;;;4997203;28;20021;-68
2022/06/20 05:55:53;;;;;;;6.00;1.70;;;12.50;99.70;;;;;;5021873;28;20030;-68
2022/06/20 05:58:24;;;;;;;7.20;1.90;;;12.50;99.70;;;;;;5005908;28;20045;-66
2022/06/20 06:00:52;;;;;;;9.95;2.15;;;12.50;99.50;;;;;;5021256;28;20049;-66
2022/06/20 06:03:24;;;;;;;5.70;1.92;;;12.40;99.50;;;;;;5025486;28;20033;-69
2022/06/20 06:05:58;;;;;;;14.88;2.45;;;12.60;99.60;;;;;;5044305;28;20029;-66
2022/06/20 06:08:38;;;;;;;4.93;1.70;;;12.60;99.40;;;;;;5024766;28;20025;-66
2022/06/20 06:11:13;;;;;;;6.57;1.80;;;12.80;99.20;;;;;;5025842;28;20052;-67
2022/06/20 06:14:00;;;;;;;4.38;1.60;;;12.90;99.00;;;;;;5026562;28;20026;-67
2022/06/20 06:16:50;;;;;;;9.70;2.17;;;13.00;98.70;;;;;;5008540;28;20024;-69
2022/06/20 06:19:55;;;;;;;7.10;1.60;;;12.90;98.40;;;;;;5024650;28;20022;-68
2022/06/20 06:22:25;;;;;;;9.27;2.42;;;13.00;98.60;;;;;;5016063;28;20034;-69
2022/06/20 06:24:56;;;;;;;8.07;2.45;;;13.10;98.70;;;;;;5021246;28;20112;-68
2022/06/20 06:27:30;;;;;;;13.20;1.80;;;13.10;98.60;;;;;;5029310;28;20061;-67
2022/06/20 06:30:01;;;;;;;5.97;1.80;;;13.20;98.30;;;;;;5040945;28;20038;-68
2022/06/20 06:32:49;;;;;;;5.10;1.52;;;13.30;98.20;;;;;;5040126;28;20259;-67
2022/06/20 06:35:23;;;;;;;7.22;1.77;;;13.40;97.90;;;;;;5040507;28;20078;-68
2022/06/20 06:38:10;;;;;;;7.72;1.65;;;13.50;97.30;;;;;;5040082;28;20029;-67
2022/06/20 06:40:41;;;;;;;6.70;1.80;;;13.50;97.80;;;;;;5036405;28;20050;-70
2022/06/20 06:43:14;;;;;;;;;;;13.50;97.10;;;;;;5022129;28;20034;-70
2022/06/20 06:45:44;;;;;;;8.70;1.55;;;13.60;97.00;;;;;;5021250;28;20004;-69
2022/06/20 06:48:49;;;;;;;6.97;1.50;;;13.70;97.20;;;;;;5038019;28;20021;-69
2022/06/20 06:51:21;;;;;;;7.03;1.67;;;13.90;96.60;;;;;;5029103;28;20025;-69
2022/06/20 06:53:54;;;;;;;9.80;2.22;;;14.00;96.10;;;;;;5039883;28;20072;-68
2022/06/20 06:56:27;;;;;;;7.95;1.70;;;14.10;96.60;;;;;;5007711;28;20072;-67
2022/06/20 06:59:01;;;;;;;6.45;1.70;;;14.20;95.90;;;;;;5036371;28;20035;-69
2022/06/20 07:01:33;;;;;;;3.50;1.40;;;14.20;95.60;;;;;;5034614;28;20029;-67
2022/06/20 07:04:09;;;;;;;7.68;1.63;;;14.20;95.70;;;;;;5020339;28;20026;-70
2022/06/20 07:06:43;;;;;;;11.88;1.90;;;14.20;95.70;;;;;;5022648;28;20324;-70
2022/06/20 07:09:31;;;;;;;3.08;1.20;;;14.30;95.60;;;;;;5040796;28;20068;-68
2022/06/20 07:12:20;;;;;;;8.98;1.63;;;14.40;94.80;;;;;;5040160;28;20217;-70
2022/06/20 07:15:13;;;;;;;6.30;1.48;;;14.50;95.00;;;;;;5022321;28;20025;-70
2022/06/20 07:18:01;;;;;;;9.63;1.80;;;14.60;95.00;;;;;;5005305;28;20036;-69
2022/06/20 07:20:31;;;;;;;6.25;1.20;;;14.80;94.40;;;;;;5020460;28;20153;-70
2022/06/20 07:23:00;;;;;;;5.13;1.50;;;14.80;93.80;;;;;;5027579;28;20036;-70
2022/06/20 07:25:38;;;;;;;4.95;1.85;;;14.80;93.80;;;;;;5025396;28;20093;-70
2022/06/20 07:28:19;;;;;;;3.65;1.45;;;14.70;93.40;;;;;;5007058;28;20125;-70
2022/06/20 07:30:57;;;;;;;8.33;1.30;;;14.80;93.30;;;;;;5021141;28;20033;-70
2022/06/20 07:33:30;;;;;;;7.40;1.40;;;14.80;93.10;;;;;;5033447;28;20030;-69
2022/06/20 07:35:59;;;;;;;4.53;1.00;;;14.90;93.30;;;;;;5041602;28;20041;-70
2022/06/20 07:38:31;;;;;;;6.40;1.55;;;15.10;93.50;;;;;;5040863;28;20030;-68
2022/06/20 07:41:02;;;;;;;5.38;1.38;;;15.20;93.00;;;;;;5042213;28;20381;-68
2022/06/20 07:43:38;;;;;;;4.25;1.48;;;15.40;92.40;;;;;;5037874;28;20025;-69
2022/06/20 07:46:12;;;;;;;8.32;1.90;;;15.30;91.90;;;;;;5022723;28;20305;-69
2022/06/20 07:48:40;;;;;;;3.95;1.50;;;15.40;92.60;;;;;;5038400;28;20061;-68
2022/06/20 07:51:13;;;;;;;6.22;1.52;;;15.50;92.10;;;;;;5022097;28;20049;-71
2022/06/20 07:53:45;;;;;;;4.05;1.30;;;15.70;91.10;;;;;;5022442;28;20057;-67
2022/06/20 07:56:16;;;;;;;4.15;1.27;;;15.80;91.10;;;;;;5021896;28;20033;-70
2022/06/20 07:58:52;;;;;;;5.40;1.40;;;15.80;90.50;;;;;;5029047;28;20213;-70
2022/06/20 08:01:29;;;;;;;10.73;1.50;;;16.00;90.40;;;;;;5041173;28;20045;-68
2022/06/20 08:04:01;;;;;;;3.63;1.27;;;16.10;90.60;;;;;;5039433;28;20033;-66
2022/06/20 08:06:49;;;;;;;7.28;1.58;;;16.10;90.10;;;;;;5041069;28;20041;-69
2022/06/20 08:09:29;;;;;;;4.60;1.38;;;16.10;90.10;;;;;;5039098;28;20045;-67
2022/06/20 08:12:02;;;;;;;6.05;1.45;;;16.00;90.50;;;;;;5036585;28;20232;-70
2022/06/20 08:14:59;;;;;;;4.20;1.40;;;16.10;90.10;;;;;;5031530;28;20033;-69
2022/06/20 08:17:25;;;;;;;4.13;1.30;;;16.30;88.50;;;;;;5026477;28;20066;-69
2022/06/20 08:19:51;;;;;;;5.97;1.48;;;16.30;88.00;;;;;;5040779;28;20025;-68
2022/06/20 08:22:47;;;;;;;4.80;1.42;;;16.30;87.70;;;;;;5040630;28;20092;-69
2022/06/20 08:25:39;;;;;;;5.05;1.55;;;16.30;88.50;;;;;;5039744;28;20247;-68
2022/06/20 08:28:11;;;;;;;2.97;1.50;;;16.30;90.40;;;;;;5026008;28;20032;-69
2022/06/20 08:30:46;;;;;;;4.68;1.55;;;16.30;91.30;;;;;;5040781;28;20090;-69
2022/06/20 08:33:41;;;;;;;4.18;1.50;;;16.30;91.10;;;;;;5040839;28;20081;-69
2022/06/20 08:36:18;;;;;;;6.95;1.80;;;16.40;92.20;;;;;;5039201;28;20059;-69
2022/06/20 08:39:09;;;;;;;5.32;1.38;;;16.30;92.10;;;;;;5040098;28;20296;-69
2022/06/20 08:42:02;;;;;;;7.13;1.95;;;16.00;92.20;;;;;;5040124;28;20041;-66
2022/06/20 08:45:07;;;;;;;4.97;1.95;;;16.10;92.30;;;;;;5039934;28;20037;-69
2022/06/20 08:48:13;;;;;;;5.88;1.58;;;16.10;92.40;;;;;;5019702;28;20030;-69
2022/06/20 08:51:18;;;;;;;6.95;1.98;;;16.10;92.20;;;;;;5012539;28;20026;-69
2022/06/20 08:54:24;;;;;;;5.57;2.00;;;16.10;92.30;;;;;;5042009;28;20097;-68
2022/06/20 08:57:13;;;;;;;12.93;2.00;;;16.00;92.50;;;;;;5043513;28;20025;-67
2022/06/20 09:00:06;;;;;;;7.15;1.50;;;16.00;92.70;;;;;;5035926;28;20098;-68
2022/06/20 09:03:11;;;;;;;5.30;1.77;;;16.20;92.50;;;;;;5037749;28;20272;-70
2022/06/20 09:06:05;;;;;;;7.57;1.60;;;16.30;92.10;;;;;;5029121;28;20079;-68
2022/06/20 09:08:58;;;;;;;4.88;1.63;;;16.20;92.30;;;;;;5043113;28;20087;-67
2022/06/20 09:11:46;;;;;;;6.00;1.67;;;16.40;92.30;;;;;;5044413;28;20030;-68
2022/06/20 09:14:39;;;;;;;6.90;1.80;;;16.50;92.30;;;;;;5043750;28;20033;-68
2022/06/20 09:17:45;;;;;;;4.90;1.90;;;16.50;92.00;;;;;;5043278;28;20063;-67
2022/06/20 09:20:29;;;;;;;8.35;1.80;;;16.50;91.90;;;;;;5032063;28;20055;-68
2022/06/20 09:23:11;;;;;;;5.05;2.20;;;16.70;92.10;;;;;;5031651;28;20212;-67
2022/06/20 09:26:00;;;;;;;5.00;1.90;;;16.70;91.60;;;;;;5042936;28;20045;-66
2022/06/20 09:29:04;;;;;;;6.53;2.03;;;16.90;91.50;;;;;;5041360;28;20029;-67
2022/06/20 09:32:09;;;;;;;5.85;1.70;;;17.10;91.00;;;;;;5028165;28;20022;-67
2022/06/20 09:35:14;;;;;;;8.27;1.80;;;17.10;90.70;;;;;;5026126;28;20026;-68
2022/06/20 09:38:07;;;;;;;8.95;1.95;;;17.10;90.50;;;;;;5009749;28;20212;-68
2022/06/20 09:40:55;;;;;;;6.32;2.22;;;17.20;90.20;;;;;;5021580;28;20101;-68
2022/06/20 09:43:54;;;;;;;4.38;1.85;;;17.30;90.50;;;;;;5022579;28;20057;-68
2022/06/20 09:46:46;;;;;;;6.15;1.40;;;17.60;90.30;;;;;;5026476;28;20236;-68
2022/06/20 09:49:29;;;;;;;4.72;1.45;;;17.70;88.10;;;;;;5042668;28;20026;-68
2022/06/20 09:52:22;;;;;;;3.97;1.48;;;17.70;86.70;;;;;;5039629;28;20325;-70
2022/06/20 09:55:12;;;;;;;6.53;2.08;;;17.70;86.10;;;;;;5022968;28;20030;-68
2022/06/20 09:57:56;;;;;;;3.97;1.85;;;17.60;85.10;;;;;;5023935;28;20077;-68
2022/06/20 10:00:46;;;;;;;7.43;1.77;;;17.70;85.30;;;;;;5022591;28;20125;-69
2022/06/20 10:03:23;;;;;;;5.15;1.73;;;17.80;85.70;;;;;;5038187;28;20025;-72
2022/06/20 10:06:12;;;;;;;4.35;1.60;;;17.70;84.80;;;;;;5043070;28;20104;-69
2022/06/20 10:08:59;;;;;;;6.10;1.60;;;17.60;85.20;;;;;;5042422;28;20029;-70
2022/06/20 10:11:53;;;;;;;5.65;1.80;;;17.50;83.80;;;;;;5041630;28;20036;-69
2022/06/20 10:15:00;;;;;;;4.90;1.50;;;17.50;84.60;;;;;;5042500;28;20121;-68
2022/06/20 10:17:54;;;;;;;6.75;2.08;;;17.70;84.50;;;;;;5020188;28;20341;-66
2022/06/20 10:20:50;;;;;;;5.60;1.60;;;17.80;83.70;;;;;;5029410;28;20173;-67
2022/06/20 10:23:55;;;;;;;3.67;1.65;;;17.80;83.80;;;;;;5025309;28;20166;-68
2022/06/20 10:26:59;;;;;;;2.72;1.30;;;17.60;83.60;;;;;;5013383;28;20220;-66
2022/06/20 10:29:42;;;;;;;3.30;1.25;;;17.50;83.80;;;;;;5034559;28;20190;-68
2022/06/20 10:32:36;;;;;;;5.20;1.58;;;17.40;84.20;;;;;;5024209;28;20029;-67
2022/06/20 10:35:42;;;;;;;4.78;1.45;;;17.70;82.50;;;;;;5041676;28;20029;-66
2022/06/20 10:38:32;;;;;;;3.88;1.75;;;17.80;82.10;;;;;;5036706;28;20048;-68
2022/06/20 10:41:38;;;;;;;4.57;1.77;;;18.10;81.80;;;;;;5019954;28;20033;-67
2022/06/20 10:44:29;;;;;;;6.20;1.52;;;18.30;81.40;;;;;;5011134;28;20065;-67
2022/06/20 10:47:34;;;;;;;5.00;1.75;;;18.40;81.80;;;;;;5032326;28;20114;-67
2022/06/20 10:50:12;;;;;;;7.88;1.85;;;18.30;82.20;;;;;;5017720;28;20249;-66
2022/06/20 10:53:11;;;;;;;8.13;1.40;;;18.10;81.70;;;;;;5023286;28;20045;-68
2022/06/20 10:55:51;;;;;;;4.63;1.30;;;18.10;81.20;;;;;;5021278;28;20057;-67
2022/06/20 10:58:45;;;;;;;7.13;2.00;;;18.10;81.40;;;;;;5027410;28;20323;-66
2022/06/20 11:01:31;;;;;;;4.18;1.67;;;18.20;81.50;;;;;;5040438;28;20360;-67
2022/06/20 11:04:37;;;;;;;4.03;1.30;;;18.30;81.20;;;;;;5041434;28;20033;-69
2022/06/20 11:07:37;;;;;;;4.63;1.50;;;18.50;80.70;;;;;;5017031;28;20357;-70
2022/06/20 11:10:27;;;;;;;4.90;1.73;;;18.50;80.60;;;;;;5039950;28;20021;-69
2022/06/20 11:13:21;;;;;;;2.88;1.45;;;18.40;80.10;;;;;;5042431;28;20029;-66
2022/06/20 11:16:13;;;;;;;3.55;1.50;;;18.30;80.70;;;;;;5039932;28;20032;-67
2022/06/20 11:19:08;;;;;;;4.45;1.55;;;18.30;81.30;;;;;;5028740;28;20037;-68
2022/06/20 11:22:13;;;;;;;5.00;1.48;;;18.30;82.40;;;;;;5020909;28;20022;-68
2022/06/20 11:24:56;;;;;;;9.48;1.52;;;18.50;81.60;;;;;;5021086;28;20037;-67
2022/06/20 11:28:01;;;;;;;5.85;1.45;;;18.70;81.90;;;;;;5024955;28;20030;-68
2022/06/20 11:30:54;;;;;;;7.25;2.10;;;18.80;81.50;;;;;;5030845;28;20029;-68
2022/06/20 11:34:04;;;;;;;3.88;1.60;;;18.70;80.10;;;;;;5033580;28;20022;-67
2022/06/20 11:37:10;;;;;;;3.78;1.70;;;18.80;81.40;;;;;;5021478;28;20388;-67
2022/06/20 11:39:49;;;;;;;6.90;1.80;;;18.90;80.80;;;;;;5013089;28;20025;-67
2022/06/20 11:42:45;;;;;;;4.75;1.90;;;18.80;80.90;;;;;;5039354;28;20067;-66
2022/06/20 11:45:51;;;;;;;5.22;2.10;;;18.80;80.60;;;;;;5036021;28;20042;-67
2022/06/20 11:48:43;;;;;;;4.03;1.60;;;18.80;80.80;;;;;;5041596;28;20063;-69
2022/06/20 11:51:20;;;;;;;6.18;1.92;;;18.90;81.40;;;;;;5035376;28;20025;-67
2022/06/20 11:54:11;;;;;;;6.00;2.00;;;19.10;80.70;;;;;;5028756;28;20017;-67
2022/06/20 11:56:52;;;;;;;4.32;1.60;;;19.10;80.10;;;;;;5045384;28;20017;-66
2022/06/20 11:59:33;;;;;;;2.30;1.17;;;19.30;80.00;;;;;;5048310;28;20068;-68
2022/06/20 12:02:39;;;;;;;6.47;1.47;;;19.40;80.00;;;;;;5053655;28;20033;-69
2022/06/20 12:05:44;;;;;;;6.97;1.90;;;19.40;78.90;;;;;;5034781;28;20291;-68
2022/06/20 12:08:36;;;;;;;6.30;1.70;;;19.40;78.70;;;;;;5047477;28;20039;-65
2022/06/20 12:11:41;;;;;;;3.65;1.50;;;19.60;78.70;;;;;;5025973;28;20044;-69
2022/06/20 12:14:35;;;;;;;6.22;1.55;;;19.50;78.10;;;;;;5047274;28;20029;-68
2022/06/20 12:17:34;;;;;;;8.90;1.50;;;19.60;77.80;;;;;;5044461;28;20037;-68
2022/06/20 12:23:25;;;;;;;5.75;1.58;;;19.50;78.20;;;;;;5019446;28;20360;-67
2022/06/20 12:26:05;;;;;;;4.85;1.73;;;19.40;78.50;;;;;;5037686;28;20056;-65
2022/06/20 12:28:37;;;;;;;5.65;1.80;;;19.40;78.60;;;;;;5040069;28;20017;-67
2022/06/20 12:31:22;;;;;;;;;;;19.50;78.80;;;;;;5038136;28;20025;-67
2022/06/20 12:34:25;;;;;;;4.18;1.70;;;19.60;78.40;;;;;;5023106;28;19902;-67
2022/06/20 12:37:11;;;;;;;3.05;1.50;;;20.00;78.10;;;;;;5021258;28;20030;-69
2022/06/20 12:39:43;;;;;;;7.35;1.73;;;20.10;77.40;;;;;;5022668;28;20072;-68
2022/06/20 12:42:25;;;;;;;2.67;1.73;;;20.30;78.30;;;;;;5030443;28;20232;-67
2022/06/20 12:45:17;;;;;;;4.13;1.75;;;20.50;76.50;;;;;;5033357;28;20044;-67
2022/06/20 12:48:03;;;;;;;8.18;3.10;;;20.40;76.80;;;;;;5030702;28;20046;-68
2022/06/20 12:50:39;;;;;;;6.00;1.77;;;20.30;76.30;;;;;;5020117;28;20029;-66
2022/06/20 12:53:30;;;;;;;7.78;1.83;;;20.30;76.60;;;;;;5029881;28;20025;-68
2022/06/20 12:56:36;;;;;;;5.75;2.00;;;20.40;76.50;;;;;;5038727;28;20060;-67
2022/06/20 12:59:41;;;;;;;4.40;1.92;;;20.50;76.10;;;;;;5002344;28;20030;-68
2022/06/20 13:02:47;;;;;;;4.47;1.70;;;20.40;75.70;;;;;;5021119;28;20052;-69
2022/06/20 13:05:52;;;;;;;3.13;1.50;;;20.30;76.40;;;;;;4984921;28;20134;-67
2022/06/20 13:08:58;;;;;;;4.93;1.90;;;20.50;76.10;;;;;;4990365;28;20034;-68
2022/06/20 13:11:37;;;;;;;3.85;2.30;;;20.70;76.00;;;;;;5016814;28;20034;-65
2022/06/20 13:14:29;;;;;;;3.50;1.55;;;20.80;76.50;;;;;;5017137;28;20105;-71
2022/06/20 13:17:34;;;;;;;8.80;1.90;;;20.70;75.70;;;;;;5013972;28;20025;-68
2022/06/20 13:20:28;;;;;;;6.78;2.20;;;20.40;77.00;;;;;;5023727;28;20041;-67
2022/06/20 13:23:21;;;;;;;5.30;1.92;;;20.30;76.20;;;;;;5021612;28;20029;-65
2022/06/20 13:25:54;;;;;;;6.38;2.10;;;20.30;76.00;;;;;;5027423;28;20022;-68
2022/06/20 13:28:44;;;;;;;4.47;1.90;;;20.40;76.00;;;;;;5020600;28;20037;-69
2022/06/20 13:31:36;;;;;;;5.07;2.13;;;20.40;76.20;;;;;;5020518;28;20276;-66
2022/06/20 13:34:20;;;;;;;4.53;1.70;;;20.60;76.10;;;;;;5023782;28;20029;-68
2022/06/20 13:36:59;;;;;;;3.00;1.80;;;20.70;75.40;;;;;;5023630;28;20033;-67
2022/06/20 13:39:48;;;;;;;7.75;1.90;;;20.70;75.40;;;;;;5025157;28;20037;-68
2022/06/20 13:42:30;;;;;;;4.85;1.75;;;20.70;75.80;;;;;;5023128;28;20313;-67
2022/06/20 13:45:23;;;;;;;7.53;1.92;;;20.80;75.40;;;;;;5022644;28;20312;-68
2022/06/20 13:47:59;;;;;;;6.70;1.90;;;20.80;75.20;;;;;;5016415;28;20058;-68
2022/06/20 13:50:44;;;;;;;8.13;2.03;;;20.90;74.90;;;;;;5004813;28;20038;-68
2022/06/20 13:53:34;;;;;;;2.72;1.50;;;21.00;74.60;;;;;;5022996;28;20033;-69
2022/06/20 13:56:39;;;;;;;5.60;1.67;;;21.10;74.30;;;;;;5018607;28;20026;-68
2022/06/20 13:59:29;;;;;;;4.45;1.85;;;21.00;74.20;;;;;;5016559;28;20036;-69
2022/06/20 14:02:35;;;;;;;6.07;1.90;;;21.10;74.50;;;;;;5022405;28;20080;-68